createdAt,value
2023-02-17T00:00:00.122Z,7.292480469
2023-02-17T00:01:01.680Z,7.30255127
2023-02-17T00:02:02.191Z,7.262268066
2023-02-17T00:03:02.720Z,7.211914063
2023-02-17T00:04:03.273Z,7.191772461
2023-02-17T00:05:03.857Z,7.18170166
2023-02-17T00:06:05.443Z,7.161560059
2023-02-17T00:07:05.794Z,7.161560059
2023-02-17T00:08:06.418Z,7.141418457
2023-02-17T00:09:07.576Z,7.141418457
2023-02-17T00:10:08.096Z,7.141418457
2023-02-17T00:11:08.692Z,7.161560059
2023-02-17T00:12:09.318Z,7.161560059
2023-02-17T00:13:09.987Z,7.18170166
2023-02-17T00:14:10.677Z,7.191772461
2023-02-17T00:15:11.176Z,7.211914063
2023-02-17T00:16:11.884Z,7.232055664
2023-02-17T00:17:12.493Z,7.242126465
2023-02-17T00:18:13.090Z,7.262268066
2023-02-17T00:19:14.562Z,7.262268066
2023-02-17T00:20:15.213Z,7.272338867
2023-02-17T00:21:15.900Z,7.292480469
2023-02-17T00:22:16.365Z,7.30255127
2023-02-17T00:23:16.893Z,7.342834473
2023-02-17T00:24:17.480Z,7.342834473
2023-02-17T00:25:18.795Z,7.292480469
2023-02-17T00:26:19.333Z,7.262268066
2023-02-17T00:27:19.878Z,7.262268066
2023-02-17T00:28:20.450Z,7.262268066
2023-02-17T00:29:52.145Z,7.272338867
2023-02-17T00:30:52.744Z,7.272338867
2023-02-17T00:31:53.212Z,7.272338867
2023-02-17T00:32:53.670Z,7.272338867
2023-02-17T00:33:54.241Z,7.30255127
2023-02-17T00:34:54.869Z,7.322692871
2023-02-17T00:35:56.334Z,7.30255127
2023-02-17T00:36:56.864Z,7.30255127
2023-02-17T00:37:57.408Z,7.30255127
2023-02-17T00:38:58.822Z,7.30255127
2023-02-17T00:39:59.438Z,7.30255127
2023-02-17T00:41:00.043Z,7.30255127
2023-02-17T00:42:00.648Z,7.332763672
2023-02-17T00:43:01.130Z,7.362976074
2023-02-17T00:44:01.850Z,7.342834473
2023-02-17T00:45:02.387Z,7.362976074
2023-02-17T00:46:03.117Z,7.342834473
2023-02-17T00:47:03.557Z,7.373046875
2023-02-17T00:48:04.046Z,7.362976074
2023-02-17T00:49:05.336Z,7.373046875
2023-02-17T00:50:05.965Z,7.393188477
2023-02-17T00:51:06.478Z,7.413330078
2023-02-17T00:52:07.053Z,7.423400879
2023-02-17T00:53:07.606Z,7.44354248
2023-02-17T00:54:08.141Z,7.393188477
2023-02-17T00:55:09.370Z,7.393188477
2023-02-17T00:56:09.966Z,7.373046875
2023-02-17T00:57:10.711Z,7.393188477
2023-02-17T00:58:11.174Z,7.393188477
2023-02-17T00:59:12.915Z,7.373046875
2023-02-17T01:00:13.539Z,7.373046875
2023-02-17T01:01:14.062Z,7.373046875
2023-02-17T01:02:14.643Z,7.373046875
2023-02-17T01:03:15.160Z,7.362976074
2023-02-17T01:04:15.693Z,7.362976074
2023-02-17T01:05:16.193Z,7.342834473
2023-02-17T01:06:16.798Z,7.332763672
2023-02-17T01:07:17.375Z,7.332763672
2023-02-17T01:08:17.904Z,7.362976074
2023-02-17T01:09:19.349Z,7.362976074
2023-02-17T01:10:19.930Z,7.413330078
2023-02-17T01:11:20.585Z,7.473754883
2023-02-17T01:12:51.759Z,7.483825684
2023-02-17T01:13:52.322Z,7.483825684
2023-02-17T01:14:52.870Z,7.503967285
2023-02-17T01:15:54.087Z,7.503967285
2023-02-17T01:16:54.727Z,7.514038086
2023-02-17T01:17:55.288Z,7.544250488
2023-02-17T01:18:55.849Z,7.544250488
2023-02-17T01:19:57.099Z,7.554321289
2023-02-17T01:20:57.696Z,7.554321289
2023-02-17T01:21:58.173Z,7.544250488
2023-02-17T01:22:58.682Z,7.554321289
2023-02-17T01:23:59.231Z,7.554321289
2023-02-17T01:24:59.762Z,7.514038086
2023-02-17T01:26:00.252Z,7.514038086
2023-02-17T01:27:00.722Z,7.514038086
2023-02-17T01:28:01.396Z,7.514038086
2023-02-17T01:29:02.618Z,7.524108887
2023-02-17T01:30:03.162Z,7.524108887
2023-02-17T01:31:03.806Z,7.544250488
2023-02-17T01:32:04.214Z,7.524108887
2023-02-17T01:33:04.727Z,7.524108887
2023-02-17T01:34:05.265Z,7.524108887
2023-02-17T01:35:05.823Z,7.524108887
2023-02-17T01:36:06.763Z,7.524108887
2023-02-17T01:37:06.854Z,7.544250488
2023-02-17T01:38:07.381Z,7.544250488
2023-02-17T01:39:07.872Z,7.544250488
2023-02-17T01:40:09.108Z,7.544250488
2023-02-17T01:41:09.626Z,7.554321289
2023-02-17T01:42:10.122Z,7.574462891
2023-02-17T01:43:10.970Z,7.584533691
2023-02-17T01:44:11.548Z,7.604675293
2023-02-17T01:45:12.085Z,7.584533691
2023-02-17T01:46:12.678Z,7.584533691
2023-02-17T01:47:13.057Z,7.584533691
2023-02-17T01:48:13.537Z,7.604675293
2023-02-17T01:49:14.862Z,7.604675293
2023-02-17T01:50:15.389Z,7.604675293
2023-02-17T01:51:16.050Z,7.604675293
2023-02-17T01:52:16.405Z,7.634887695
2023-02-17T01:53:16.909Z,7.624816895
2023-02-17T01:54:17.397Z,7.634887695
2023-02-17T01:55:17.947Z,7.655029297
2023-02-17T01:56:18.502Z,7.655029297
2023-02-17T01:57:19.053Z,7.685241699
2023-02-17T01:58:20.336Z,7.705383301
2023-02-17T01:59:51.055Z,7.735595703
2023-02-17T02:00:52.307Z,7.725524902
2023-02-17T02:01:52.989Z,7.735595703
2023-02-17T02:02:53.472Z,7.755737305
2023-02-17T02:03:53.834Z,7.755737305
2023-02-17T02:04:54.321Z,7.735595703
2023-02-17T02:05:54.879Z,7.735595703
2023-02-17T02:06:55.351Z,7.755737305
2023-02-17T02:07:55.865Z,7.755737305
2023-02-17T02:08:56.363Z,7.755737305
2023-02-17T02:09:57.576Z,7.755737305
2023-02-17T02:10:58.135Z,7.755737305
2023-02-17T02:11:58.643Z,7.785949707
2023-02-17T02:12:59.185Z,7.806091309
2023-02-17T02:13:59.718Z,7.816162109
2023-02-17T02:15:00.192Z,7.836303711
2023-02-17T02:16:00.753Z,7.836303711
2023-02-17T02:17:01.305Z,7.806091309
2023-02-17T02:18:02.645Z,7.785949707
2023-02-17T02:19:03.234Z,7.785949707
2023-02-17T02:20:04.609Z,7.785949707
2023-02-17T02:21:05.155Z,7.785949707
2023-02-17T02:22:05.682Z,7.785949707
2023-02-17T02:23:06.221Z,7.785949707
2023-02-17T02:24:06.756Z,7.785949707
2023-02-17T02:25:07.262Z,7.785949707
2023-02-17T02:26:07.996Z,7.785949707
2023-02-17T02:27:08.364Z,7.816162109
2023-02-17T02:28:08.932Z,7.836303711
2023-02-17T02:29:10.071Z,7.816162109
2023-02-17T02:30:11.158Z,7.836303711
2023-02-17T02:31:11.706Z,7.836303711
2023-02-17T02:32:12.099Z,7.816162109
2023-02-17T02:33:12.600Z,7.846374512
2023-02-17T02:34:13.174Z,7.846374512
2023-02-17T02:35:13.669Z,7.846374512
2023-02-17T02:36:14.143Z,7.856445313
2023-02-17T02:37:14.612Z,7.846374512
2023-02-17T02:38:15.090Z,7.846374512
2023-02-17T02:39:15.657Z,7.846374512
2023-02-17T02:40:17.091Z,7.816162109
2023-02-17T02:41:17.602Z,7.836303711
2023-02-17T02:42:18.829Z,7.836303711
2023-02-17T02:43:19.318Z,7.836303711
2023-02-17T02:44:50.457Z,7.816162109
2023-02-17T02:45:51.014Z,7.816162109
2023-02-17T02:46:51.463Z,7.836303711
2023-02-17T02:47:52.013Z,7.816162109
2023-02-17T02:48:52.512Z,7.836303711
2023-02-17T02:49:53.876Z,7.816162109
2023-02-17T02:50:54.378Z,7.836303711
2023-02-17T02:51:54.884Z,7.836303711
2023-02-17T02:52:55.384Z,7.846374512
2023-02-17T02:53:55.868Z,7.846374512
2023-02-17T02:54:56.407Z,7.816162109
2023-02-17T02:55:56.925Z,7.806091309
2023-02-17T02:56:57.438Z,7.806091309
2023-02-17T02:57:57.962Z,7.816162109
2023-02-17T02:58:59.026Z,7.836303711
2023-02-17T03:00:00.376Z,7.816162109
2023-02-17T03:01:00.909Z,7.836303711
2023-02-17T03:02:01.377Z,7.846374512
2023-02-17T03:03:01.901Z,7.846374512
2023-02-17T03:04:02.437Z,7.836303711
2023-02-17T03:05:02.904Z,7.836303711
2023-02-17T03:06:03.511Z,7.836303711
2023-02-17T03:07:03.974Z,7.806091309
2023-02-17T03:08:04.510Z,7.816162109
2023-02-17T03:09:05.098Z,7.806091309
2023-02-17T03:10:06.297Z,7.806091309
2023-02-17T03:11:06.838Z,7.836303711
2023-02-17T03:12:08.174Z,7.846374512
2023-02-17T03:13:08.724Z,7.846374512
2023-02-17T03:14:09.253Z,7.856445313
2023-02-17T03:15:09.728Z,7.886657715
2023-02-17T03:16:11.129Z,7.886657715
2023-02-17T03:17:11.530Z,7.906799316
2023-02-17T03:18:12.078Z,7.906799316
2023-02-17T03:19:12.577Z,7.906799316
2023-02-17T03:20:13.809Z,7.906799316
2023-02-17T03:21:14.362Z,7.886657715
2023-02-17T03:22:14.817Z,7.876586914
2023-02-17T03:23:15.368Z,7.856445313
2023-02-17T03:24:15.887Z,7.846374512
2023-02-17T03:25:16.403Z,7.816162109
2023-02-17T03:26:16.914Z,7.816162109
2023-02-17T03:27:18.028Z,7.816162109
2023-02-17T03:28:18.571Z,7.816162109
2023-02-17T03:29:19.501Z,7.816162109
2023-02-17T03:30:51.148Z,7.816162109
2023-02-17T03:31:51.761Z,7.836303711
2023-02-17T03:32:52.122Z,7.836303711
2023-02-17T03:33:52.704Z,7.846374512
2023-02-17T03:34:53.230Z,7.836303711
2023-02-17T03:35:53.804Z,7.856445313
2023-02-17T03:36:54.375Z,7.856445313
2023-02-17T03:37:54.839Z,7.856445313
2023-02-17T03:38:55.389Z,7.876586914
2023-02-17T03:39:55.888Z,7.886657715
2023-02-17T03:40:57.080Z,7.876586914
2023-02-17T03:41:57.590Z,7.886657715
2023-02-17T03:42:58.107Z,7.886657715
2023-02-17T03:43:58.634Z,7.886657715
2023-02-17T03:44:59.236Z,7.876586914
2023-02-17T03:45:59.837Z,7.876586914
2023-02-17T03:47:00.379Z,7.856445313
2023-02-17T03:48:00.866Z,7.836303711
2023-02-17T03:49:01.380Z,7.816162109
2023-02-17T03:50:01.940Z,7.806091309
2023-02-17T03:51:03.100Z,7.785949707
2023-02-17T03:52:03.711Z,7.806091309
2023-02-17T03:53:04.221Z,7.765808105
2023-02-17T03:54:04.727Z,7.755737305
2023-02-17T03:55:05.249Z,7.755737305
2023-02-17T03:56:06.731Z,7.735595703
2023-02-17T03:57:06.932Z,7.725524902
2023-02-17T03:58:07.483Z,7.725524902
2023-02-17T03:59:08.003Z,7.735595703
2023-02-17T04:00:08.498Z,7.755737305
2023-02-17T04:01:09.642Z,7.755737305
2023-02-17T04:02:10.470Z,7.765808105
2023-02-17T04:03:11.024Z,7.785949707
2023-02-17T04:04:11.611Z,7.816162109
2023-02-17T04:05:12.042Z,7.816162109
2023-02-17T04:06:12.611Z,7.816162109
2023-02-17T04:07:13.143Z,7.785949707
2023-02-17T04:08:13.645Z,7.785949707
2023-02-17T04:09:14.159Z,7.785949707
2023-02-17T04:10:14.682Z,7.785949707
2023-02-17T04:11:16.046Z,7.755737305
2023-02-17T04:12:16.614Z,7.765808105
2023-02-17T04:13:17.134Z,7.765808105
2023-02-17T04:14:17.710Z,7.785949707
2023-02-17T04:15:18.231Z,7.785949707
2023-02-17T04:16:49.331Z,7.806091309
2023-02-17T04:17:49.904Z,7.816162109
2023-02-17T04:18:50.404Z,7.846374512
2023-02-17T04:19:50.894Z,7.856445313
2023-02-17T04:20:52.069Z,7.876586914
2023-02-17T04:21:52.604Z,7.886657715
2023-02-17T04:22:53.154Z,7.906799316
2023-02-17T04:23:53.766Z,7.916870117
2023-02-17T04:24:54.296Z,7.916870117
2023-02-17T04:25:54.846Z,7.94708252
2023-02-17T04:26:55.344Z,7.937011719
2023-02-17T04:27:55.855Z,7.937011719
2023-02-17T04:28:56.481Z,7.94708252
2023-02-17T04:29:57.228Z,7.937011719
2023-02-17T04:30:58.638Z,7.95715332
2023-02-17T04:31:59.242Z,7.987365723
2023-02-17T04:32:59.616Z,7.997436523
2023-02-17T04:34:00.115Z,7.997436523
2023-02-17T04:35:00.696Z,7.997436523
2023-02-17T04:36:01.198Z,8.027648926
2023-02-17T04:37:01.759Z,8.027648926
2023-02-17T04:38:02.336Z,8.017578125
2023-02-17T04:39:02.752Z,8.027648926
2023-02-17T04:40:03.228Z,8.017578125
2023-02-17T04:41:04.602Z,7.987365723
2023-02-17T04:42:05.098Z,7.987365723
2023-02-17T04:43:05.677Z,7.987365723
2023-02-17T04:44:06.207Z,7.987365723
2023-02-17T04:45:06.694Z,7.987365723
2023-02-17T04:46:07.562Z,7.95715332
2023-02-17T04:47:07.704Z,7.94708252
2023-02-17T04:48:08.258Z,7.937011719
2023-02-17T04:49:08.722Z,7.916870117
2023-02-17T04:50:09.239Z,7.906799316
2023-02-17T04:51:10.600Z,7.906799316
2023-02-17T04:52:11.078Z,7.906799316
2023-02-17T04:53:11.605Z,7.906799316
2023-02-17T04:54:12.091Z,7.906799316
2023-02-17T04:55:12.596Z,7.916870117
2023-02-17T04:56:13.075Z,7.937011719
2023-02-17T04:57:13.589Z,7.937011719
2023-02-17T04:58:14.145Z,7.95715332
2023-02-17T04:59:14.650Z,7.987365723
2023-02-17T05:00:15.132Z,7.987365723
2023-02-17T05:01:15.664Z,7.987365723
2023-02-17T05:02:16.815Z,7.997436523
2023-02-17T05:03:17.325Z,8.017578125
2023-02-17T05:04:18.249Z,7.997436523
2023-02-17T05:05:49.013Z,8.017578125
2023-02-17T05:06:49.580Z,8.017578125
2023-02-17T05:07:50.136Z,7.997436523
2023-02-17T05:08:50.755Z,7.987365723
2023-02-17T05:09:51.201Z,7.94708252
2023-02-17T05:10:52.326Z,7.94708252
2023-02-17T05:11:52.846Z,7.94708252
2023-02-17T05:12:54.291Z,7.937011719
2023-02-17T05:13:54.968Z,7.906799316
2023-02-17T05:14:55.433Z,7.906799316
2023-02-17T05:15:56.830Z,7.916870117
2023-02-17T05:16:57.319Z,7.937011719
2023-02-17T05:17:57.848Z,7.916870117
2023-02-17T05:18:58.380Z,7.94708252
2023-02-17T05:19:58.911Z,7.94708252
2023-02-17T05:21:00.311Z,7.987365723
2023-02-17T05:22:00.828Z,8.017578125
2023-02-17T05:23:01.331Z,7.997436523
2023-02-17T05:24:01.878Z,7.997436523
2023-02-17T05:25:02.369Z,7.997436523
2023-02-17T05:26:02.866Z,7.987365723
2023-02-17T05:27:03.349Z,7.997436523
2023-02-17T05:28:03.868Z,8.017578125
2023-02-17T05:29:04.350Z,8.017578125
2023-02-17T05:30:04.871Z,8.027648926
2023-02-17T05:31:06.411Z,8.027648926
2023-02-17T05:32:06.895Z,8.027648926
2023-02-17T05:33:07.325Z,8.027648926
2023-02-17T05:34:07.958Z,8.027648926
2023-02-17T05:35:08.471Z,7.997436523
2023-02-17T05:36:09.021Z,7.94708252
2023-02-17T05:37:09.563Z,7.916870117
2023-02-17T05:38:10.067Z,7.886657715
2023-02-17T05:39:10.700Z,7.886657715
2023-02-17T05:40:11.189Z,7.906799316
2023-02-17T05:41:12.313Z,7.916870117
2023-02-17T05:42:12.836Z,7.906799316
2023-02-17T05:43:13.346Z,7.916870117
2023-02-17T05:44:14.028Z,7.916870117
2023-02-17T05:45:14.426Z,7.94708252
2023-02-17T05:46:15.028Z,7.937011719
2023-02-17T05:47:15.471Z,7.937011719
2023-02-17T05:48:15.950Z,7.94708252
2023-02-17T05:49:16.507Z,7.94708252
2023-02-17T05:50:17.012Z,7.987365723
2023-02-17T05:51:48.290Z,7.997436523
2023-02-17T05:52:49.570Z,8.027648926
2023-02-17T05:53:50.048Z,8.027648926
2023-02-17T05:54:50.527Z,8.037719727
2023-02-17T05:55:51.038Z,8.037719727
2023-02-17T05:56:51.616Z,8.027648926
2023-02-17T05:57:52.168Z,8.027648926
2023-02-17T05:58:52.728Z,8.037719727
2023-02-17T05:59:53.222Z,8.037719727
2023-02-17T06:00:53.733Z,8.027648926
2023-02-17T06:01:55.094Z,8.027648926
2023-02-17T06:02:55.699Z,8.027648926
2023-02-17T06:03:56.115Z,8.027648926
2023-02-17T06:04:57.642Z,8.037719727
2023-02-17T06:05:58.174Z,8.057861328
2023-02-17T06:06:59.314Z,8.057861328
2023-02-17T06:07:59.826Z,8.067932129
2023-02-17T06:09:00.358Z,8.057861328
2023-02-17T06:10:00.920Z,8.057861328
2023-02-17T06:11:01.438Z,8.057861328
2023-02-17T06:12:02.583Z,8.067932129
2023-02-17T06:13:03.066Z,8.067932129
2023-02-17T06:14:03.597Z,8.067932129
2023-02-17T06:15:04.283Z,8.057861328
2023-02-17T06:16:04.962Z,8.067932129
2023-02-17T06:17:05.299Z,8.057861328
2023-02-17T06:18:05.809Z,8.067932129
2023-02-17T06:19:06.328Z,8.067932129
2023-02-17T06:20:06.820Z,8.067932129
2023-02-17T06:21:07.269Z,8.08807373
2023-02-17T06:22:08.566Z,8.08807373
2023-02-17T06:23:09.074Z,8.08807373
2023-02-17T06:24:09.591Z,8.067932129
2023-02-17T06:25:10.211Z,8.057861328
2023-02-17T06:26:10.891Z,8.057861328
2023-02-17T06:27:11.374Z,8.067932129
2023-02-17T06:28:11.893Z,8.057861328
2023-02-17T06:29:13.277Z,8.057861328
2023-02-17T06:30:13.865Z,8.027648926
2023-02-17T06:31:14.481Z,8.017578125
2023-02-17T06:32:15.914Z,8.027648926
2023-02-17T06:33:16.451Z,8.027648926
2023-02-17T06:34:47.619Z,8.027648926
2023-02-17T06:35:48.151Z,8.017578125
2023-02-17T06:36:48.688Z,8.017578125
2023-02-17T06:37:49.197Z,7.987365723
2023-02-17T06:38:49.710Z,7.997436523
2023-02-17T06:39:50.191Z,7.997436523
2023-02-17T06:40:50.699Z,7.987365723
2023-02-17T06:41:51.856Z,7.95715332
2023-02-17T06:42:52.341Z,7.94708252
2023-02-17T06:43:52.824Z,7.937011719
2023-02-17T06:44:53.291Z,7.937011719
2023-02-17T06:45:53.808Z,7.937011719
2023-02-17T06:46:54.275Z,7.916870117
2023-02-17T06:47:54.763Z,7.906799316
2023-02-17T06:48:55.290Z,7.916870117
2023-02-17T06:49:55.831Z,7.937011719
2023-02-17T06:50:56.300Z,7.94708252
2023-02-17T06:51:56.805Z,7.94708252
2023-02-17T06:52:57.296Z,7.987365723
2023-02-17T06:53:58.808Z,7.997436523
2023-02-17T06:54:59.306Z,7.987365723
2023-02-17T06:55:59.855Z,7.997436523
2023-02-17T06:57:00.390Z,7.987365723
2023-02-17T06:58:00.870Z,7.95715332
2023-02-17T06:59:01.502Z,7.987365723
2023-02-17T07:00:02.009Z,7.987365723
2023-02-17T07:01:03.316Z,7.987365723
2023-02-17T07:02:04.970Z,7.987365723
2023-02-17T07:03:05.418Z,7.997436523
2023-02-17T07:04:05.885Z,7.987365723
2023-02-17T07:05:06.347Z,7.987365723
2023-02-17T07:06:07.465Z,7.987365723
2023-02-17T07:07:07.732Z,7.997436523
2023-02-17T07:08:08.231Z,7.997436523
2023-02-17T07:09:09.097Z,7.997436523
2023-02-17T07:10:10.038Z,7.987365723
2023-02-17T07:11:11.020Z,7.987365723
2023-02-17T07:12:12.094Z,7.997436523
2023-02-17T07:13:12.577Z,8.017578125
2023-02-17T07:14:13.160Z,8.017578125
2023-02-17T07:15:13.769Z,8.027648926
2023-02-17T07:16:15.158Z,8.037719727
2023-02-17T07:17:15.686Z,8.037719727
2023-02-17T07:18:16.632Z,8.037719727
2023-02-17T07:19:47.472Z,8.057861328
2023-02-17T07:20:48.018Z,8.057861328
2023-02-17T07:21:49.403Z,8.067932129
2023-02-17T07:22:50.017Z,8.067932129
2023-02-17T07:23:50.544Z,8.067932129
2023-02-17T07:24:51.164Z,8.08807373
2023-02-17T07:25:51.755Z,8.08807373
2023-02-17T07:26:52.352Z,8.098144531
2023-02-17T07:27:52.954Z,8.098144531
2023-02-17T07:28:54.136Z,8.098144531
2023-02-17T07:29:54.665Z,8.118286133
2023-02-17T07:30:55.181Z,8.118286133
2023-02-17T07:31:56.399Z,8.138427734
2023-02-17T07:32:56.887Z,8.128356934
2023-02-17T07:33:57.374Z,8.128356934
2023-02-17T07:34:58.322Z,8.138427734
2023-02-17T07:35:58.989Z,8.138427734
2023-02-17T07:36:59.568Z,8.168640137
2023-02-17T07:38:00.124Z,8.198852539
2023-02-17T07:39:00.860Z,8.178710938
2023-02-17T07:40:01.428Z,8.178710938
2023-02-17T07:41:01.919Z,8.198852539
2023-02-17T07:42:03.381Z,8.20892334
2023-02-17T07:43:03.942Z,8.218994141
2023-02-17T07:44:04.408Z,8.218994141
2023-02-17T07:45:05.404Z,8.239135742
2023-02-17T07:46:06.404Z,8.269348145
2023-02-17T07:47:06.915Z,8.279418945
2023-02-17T07:48:07.533Z,8.289489746
2023-02-17T07:49:08.058Z,8.33984375
2023-02-17T07:50:08.582Z,8.359985352
2023-02-17T07:51:09.129Z,8.370056152
2023-02-17T07:52:10.793Z,8.400268555
2023-02-17T07:53:11.407Z,8.400268555
2023-02-17T07:54:11.981Z,8.420410156
2023-02-17T07:55:12.578Z,8.430480957
2023-02-17T07:56:13.122Z,8.450622559
2023-02-17T07:57:13.629Z,8.47076416
2023-02-17T07:58:14.196Z,8.521118164
2023-02-17T07:59:16.310Z,8.611755371
2023-02-17T08:00:47.118Z,8.641967773
2023-02-17T08:01:47.707Z,8.672180176
2023-02-17T08:02:49.116Z,8.702392578
2023-02-17T08:03:49.688Z,8.752746582
2023-02-17T08:04:50.346Z,8.782958984
2023-02-17T08:05:50.895Z,8.782958984
2023-02-17T08:06:51.502Z,8.803100586
2023-02-17T08:07:52.046Z,8.833312988
2023-02-17T08:08:52.592Z,8.883666992
2023-02-17T08:09:53.819Z,8.883666992
2023-02-17T08:10:55.317Z,8.934020996
2023-02-17T08:11:55.898Z,8.964233398
2023-02-17T08:12:57.439Z,8.974304199
2023-02-17T08:13:57.990Z,9.004516602
2023-02-17T08:14:58.607Z,9.034729004
2023-02-17T08:15:59.847Z,9.034729004
2023-02-17T08:17:00.686Z,9.034729004
2023-02-17T08:18:01.175Z,9.044799805
2023-02-17T08:19:01.712Z,9.034729004
2023-02-17T08:20:08.691Z,9.034729004
2023-02-17T08:21:02.803Z,9.034729004
2023-02-17T08:22:04.135Z,9.044799805
2023-02-17T08:23:05.655Z,9.064941406
2023-02-17T08:24:06.194Z,9.064941406
2023-02-17T08:25:06.774Z,9.095153809
2023-02-17T08:26:08.190Z,9.125366211
2023-02-17T08:27:08.418Z,9.125366211
2023-02-17T08:28:10.073Z,9.165649414
2023-02-17T08:29:11.399Z,9.216003418
2023-02-17T08:30:11.908Z,9.216003418
2023-02-17T08:31:12.516Z,9.23614502
2023-02-17T08:32:13.931Z,9.296569824
2023-02-17T08:33:14.387Z,9.336853027
2023-02-17T08:34:15.070Z,9.407348633
2023-02-17T08:35:46.375Z,9.437561035
2023-02-17T08:36:46.929Z,9.477844238
2023-02-17T08:37:47.491Z,9.518127441
2023-02-17T08:38:48.862Z,9.558410645
2023-02-17T08:39:49.457Z,9.588623047
2023-02-17T08:40:49.958Z,9.618835449
2023-02-17T08:41:50.588Z,9.669189453
2023-02-17T08:42:51.869Z,9.709472656
2023-02-17T08:43:52.543Z,9.769897461
2023-02-17T08:44:53.065Z,9.810180664
2023-02-17T08:45:53.632Z,9.88067627
2023-02-17T08:46:54.196Z,9.931030273
2023-02-17T08:47:54.901Z,9.951171875
2023-02-17T08:48:55.408Z,10.01159668
2023-02-17T08:49:56.049Z,10.01159668
2023-02-17T08:50:56.514Z,10.06195068
2023-02-17T08:51:57.064Z,10.06195068
2023-02-17T08:52:58.409Z,10.10223389
2023-02-17T08:53:58.947Z,10.11230469
2023-02-17T08:54:59.490Z,10.14251709
2023-02-17T08:56:00.031Z,10.18280029
2023-02-17T08:57:00.559Z,10.2432251
2023-02-17T08:58:01.345Z,10.2935791
2023-02-17T08:59:02.710Z,10.34393311
2023-02-17T09:00:05.493Z,10.38421631
2023-02-17T09:01:03.854Z,10.43457031
2023-02-17T09:02:04.246Z,10.47485352
2023-02-17T09:03:05.608Z,10.51513672
2023-02-17T09:04:06.203Z,10.56549072
2023-02-17T09:05:07.126Z,10.62591553
2023-02-17T09:06:08.572Z,10.65612793
2023-02-17T09:07:08.866Z,10.68634033
2023-02-17T09:08:09.361Z,10.71655273
2023-02-17T09:09:09.850Z,10.74676514
2023-02-17T09:10:10.608Z,10.79711914
2023-02-17T09:11:11.188Z,10.80718994
2023-02-17T09:12:11.780Z,10.80718994
2023-02-17T09:13:13.174Z,10.83740234
2023-02-17T09:14:13.714Z,10.82733154
2023-02-17T09:15:14.324Z,10.83740234
2023-02-17T09:16:14.830Z,10.83740234
2023-02-17T09:17:45.747Z,10.85754395
2023-02-17T09:18:46.523Z,10.86761475
2023-02-17T09:19:47.139Z,10.87768555
2023-02-17T09:20:47.712Z,10.87768555
2023-02-17T09:21:48.278Z,10.89782715
2023-02-17T09:22:51.430Z,10.90789795
2023-02-17T09:23:50.027Z,10.92803955
2023-02-17T09:24:50.528Z,10.92803955
2023-02-17T09:25:51.097Z,10.94818115
2023-02-17T09:26:51.595Z,10.97839355
2023-02-17T09:27:52.141Z,11.00860596
2023-02-17T09:28:52.695Z,11.02874756
2023-02-17T09:29:53.868Z,11.04888916
2023-02-17T09:30:54.551Z,11.05895996
2023-02-17T09:31:55.171Z,11.07910156
2023-02-17T09:32:56.428Z,11.10931396
2023-02-17T09:33:56.882Z,11.08917236
2023-02-17T09:34:57.499Z,11.11938477
2023-02-17T09:35:58.085Z,11.12945557
2023-02-17T09:36:58.808Z,11.12945557
2023-02-17T09:37:59.410Z,11.15966797
2023-02-17T09:38:59.983Z,11.15966797
2023-02-17T09:40:00.577Z,11.16973877
2023-02-17T09:41:01.280Z,11.16973877
2023-02-17T09:42:01.848Z,11.19995117
2023-02-17T09:43:03.369Z,11.19995117
2023-02-17T09:44:03.925Z,11.21002197
2023-02-17T09:45:04.766Z,11.24023438
2023-02-17T09:46:05.596Z,11.26037598
2023-02-17T09:47:05.949Z,11.27044678
2023-02-17T09:48:06.395Z,11.31072998
2023-02-17T09:49:06.844Z,11.31072998
2023-02-17T09:50:07.562Z,11.35101318
2023-02-17T09:51:08.192Z,11.39129639
2023-02-17T09:52:08.747Z,11.39129639
2023-02-17T09:53:09.846Z,11.39129639
2023-02-17T09:54:10.563Z,11.41143799
2023-02-17T09:55:11.124Z,11.42150879
2023-02-17T09:56:11.669Z,11.44165039
2023-02-17T09:57:12.321Z,11.45172119
2023-02-17T09:58:13.722Z,11.46179199
2023-02-17T09:59:14.188Z,11.49200439
2023-02-17T10:00:45.300Z,11.5322876
2023-02-17T10:01:46.608Z,11.5423584
2023-02-17T10:02:47.177Z,11.5625
2023-02-17T10:03:48.617Z,11.5725708
2023-02-17T10:04:49.079Z,11.5725708
2023-02-17T10:05:49.647Z,11.6229248
2023-02-17T10:06:50.232Z,11.6229248
2023-02-17T10:07:50.651Z,11.64306641
2023-02-17T10:08:51.124Z,11.66320801
2023-02-17T10:09:51.599Z,11.69342041
2023-02-17T10:10:52.458Z,11.72363281
2023-02-17T10:11:52.982Z,11.74377441
2023-02-17T10:12:53.538Z,11.77398682
2023-02-17T10:13:54.624Z,11.78405762
2023-02-17T10:14:55.151Z,11.79412842
2023-02-17T10:15:55.774Z,11.82434082
2023-02-17T10:16:56.199Z,11.81427002
2023-02-17T10:17:56.724Z,11.81427002
2023-02-17T10:18:57.390Z,11.81427002
2023-02-17T10:19:57.757Z,11.84448242
2023-02-17T10:20:58.339Z,11.88476563
2023-02-17T10:21:58.878Z,11.93511963
2023-02-17T10:23:00.353Z,11.93511963
2023-02-17T10:24:00.985Z,11.97540283
2023-02-17T10:25:02.078Z,11.97540283
2023-02-17T10:26:02.708Z,11.96533203
2023-02-17T10:27:03.503Z,11.95526123
2023-02-17T10:28:04.902Z,11.93511963
2023-02-17T10:29:05.539Z,11.92504883
2023-02-17T10:30:06.341Z,11.92504883
2023-02-17T10:31:06.954Z,11.93511963
2023-02-17T10:32:07.794Z,11.96533203
2023-02-17T10:33:08.913Z,11.97540283
2023-02-17T10:34:09.544Z,12.00561523
2023-02-17T10:35:10.101Z,12.04589844
2023-02-17T10:36:10.941Z,12.10632324
2023-02-17T10:37:11.660Z,12.10632324
2023-02-17T10:38:12.184Z,12.14660645
2023-02-17T10:39:12.970Z,12.17681885
2023-02-17T10:40:13.532Z,12.22717285
2023-02-17T10:41:44.682Z,12.28759766
2023-02-17T10:42:45.241Z,12.29766846
2023-02-17T10:43:46.607Z,12.32788086
2023-02-17T10:44:47.229Z,12.35809326
2023-02-17T10:45:47.773Z,12.39837646
2023-02-17T10:46:48.318Z,12.42858887
2023-02-17T10:47:49.041Z,12.47894287
2023-02-17T10:48:49.597Z,12.50915527
2023-02-17T10:49:50.085Z,12.51922607
2023-02-17T10:50:50.528Z,12.53936768
2023-02-17T10:51:51.006Z,12.54943848
2023-02-17T10:52:51.538Z,12.53936768
2023-02-17T10:53:52.601Z,12.55950928
2023-02-17T10:54:53.188Z,12.55950928
2023-02-17T10:55:53.646Z,12.55950928
2023-02-17T10:56:54.140Z,12.55950928
2023-02-17T10:57:54.689Z,12.55950928
2023-02-17T10:58:56.121Z,12.55950928
2023-02-17T10:59:56.627Z,12.60986328
2023-02-17T11:00:57.150Z,12.61993408
2023-02-17T11:01:57.583Z,12.61993408
2023-02-17T11:02:58.117Z,12.61993408